sensor_id;sensor_type;location;lat;lon;timestamp;P1;durP1;ratioP1;P2;durP2;ratioP2
74196;SDS011;62555;52.678;4.900;2023-04-16T00:01:52;2.83;;;1.17;;
74196;SDS011;62555;52.678;4.900;2023-04-16T00:04:17;3.73;;;1.13;;
74196;SDS011;62555;52.678;4.900;2023-04-16T00:06:43;3.53;;;1.40;;
74196;SDS011;62555;52.678;4.900;2023-04-16T00:09:08;2.57;;;1.27;;
74196;SDS011;62555;52.678;4.900;2023-04-16T00:11:33;2.83;;;1.30;;
74196;SDS011;62555;52.678;4.900;2023-04-16T00:13:58;2.33;;;1.10;;
74196;SDS011;62555;52.678;4.900;2023-04-16T00:16:23;4.10;;;1.53;;
74196;SDS011;62555;52.678;4.900;2023-04-16T00:18:48;2.93;;;1.20;;
74196;SDS011;62555;52.678;4.900;2023-04-16T00:21:14;4.43;;;1.70;;
74196;SDS011;62555;52.678;4.900;2023-04-16T00:23:39;2.15;;;1.02;;
74196;SDS011;62555;52.678;4.900;2023-04-16T00:26:04;2.57;;;1.20;;
74196;SDS011;62555;52.678;4.900;2023-04-16T00:28:29;3.47;;;1.10;;
74196;SDS011;62555;52.678;4.900;2023-04-16T00:30:55;3.90;;;1.80;;
74196;SDS011;62555;52.678;4.900;2023-04-16T00:33:20;2.33;;;1.30;;
74196;SDS011;62555;52.678;4.900;2023-04-16T00:35:45;2.17;;;1.27;;
74196;SDS011;62555;52.678;4.900;2023-04-16T00:38:11;2.83;;;1.85;;
74196;SDS011;62555;52.678;4.900;2023-04-16T00:40:36;4.00;;;1.33;;
74196;SDS011;62555;52.678;4.900;2023-04-16T00:43:02;3.25;;;1.33;;
74196;SDS011;62555;52.678;4.900;2023-04-16T00:45:27;1.80;;;0.97;;
74196;SDS011;62555;52.678;4.900;2023-04-16T00:47:52;2.17;;;1.10;;
74196;SDS011;62555;52.678;4.900;2023-04-16T00:50:17;4.00;;;1.23;;
74196;SDS011;62555;52.678;4.900;2023-04-16T00:52:42;2.53;;;1.07;;
74196;SDS011;62555;52.678;4.900;2023-04-16T00:55:10;2.00;;;1.65;;
74196;SDS011;62555;52.678;4.900;2023-04-16T00:57:37;3.05;;;1.20;;
74196;SDS011;62555;52.678;4.900;2023-04-16T01:00:02;2.43;;;1.00;;
74196;SDS011;62555;52.678;4.900;2023-04-16T01:02:27;3.05;;;1.35;;
74196;SDS011;62555;52.678;4.900;2023-04-16T01:04:53;4.00;;;1.27;;
74196;SDS011;62555;52.678;4.900;2023-04-16T01:07:18;3.05;;;1.15;;
74196;SDS011;62555;52.678;4.900;2023-04-16T01:09:43;5.50;;;1.30;;
74196;SDS011;62555;52.678;4.900;2023-04-16T01:12:09;3.00;;;1.10;;
74196;SDS011;62555;52.678;4.900;2023-04-16T01:14:34;2.67;;;1.07;;
74196;SDS011;62555;52.678;4.900;2023-04-16T01:17:00;2.20;;;1.02;;
74196;SDS011;62555;52.678;4.900;2023-04-16T01:19:26;1.73;;;0.98;;
74196;SDS011;62555;52.678;4.900;2023-04-16T01:21:51;2.47;;;1.10;;
74196;SDS011;62555;52.678;4.900;2023-04-16T01:24:16;2.13;;;0.90;;
74196;SDS011;62555;52.678;4.900;2023-04-16T01:26:41;2.05;;;0.80;;
74196;SDS011;62555;52.678;4.900;2023-04-16T01:29:06;1.43;;;0.90;;
74196;SDS011;62555;52.678;4.900;2023-04-16T01:31:31;1.52;;;1.00;;
74196;SDS011;62555;52.678;4.900;2023-04-16T01:33:57;3.17;;;1.30;;
74196;SDS011;62555;52.678;4.900;2023-04-16T01:36:22;2.07;;;1.23;;
74196;SDS011;62555;52.678;4.900;2023-04-16T01:38:47;1.43;;;0.90;;
74196;SDS011;62555;52.678;4.900;2023-04-16T01:41:12;1.90;;;0.90;;
74196;SDS011;62555;52.678;4.900;2023-04-16T01:43:37;2.40;;;0.80;;
74196;SDS011;62555;52.678;4.900;2023-04-16T01:49:03;2.67;;;0.93;;
74196;SDS011;62555;52.678;4.900;2023-04-16T01:51:29;2.25;;;0.85;;
74196;SDS011;62555;52.678;4.900;2023-04-16T01:53:55;2.22;;;0.90;;
74196;SDS011;62555;52.678;4.900;2023-04-16T01:56:22;2.50;;;0.85;;
74196;SDS011;62555;52.678;4.900;2023-04-16T01:58:47;3.65;;;1.20;;
74196;SDS011;62555;52.678;4.900;2023-04-16T02:01:12;2.27;;;0.80;;
74196;SDS011;62555;52.678;4.900;2023-04-16T02:03:37;2.80;;;0.93;;
74196;SDS011;62555;52.678;4.900;2023-04-16T02:06:02;1.73;;;0.90;;
74196;SDS011;62555;52.678;4.900;2023-04-16T02:08:28;2.95;;;1.20;;
74196;SDS011;62555;52.678;4.900;2023-04-16T02:10:54;2.63;;;1.40;;
74196;SDS011;62555;52.678;4.900;2023-04-16T02:13:19;2.22;;;1.00;;
74196;SDS011;62555;52.678;4.900;2023-04-16T02:15:47;2.73;;;0.80;;
74196;SDS011;62555;52.678;4.900;2023-04-16T02:18:13;2.53;;;0.88;;
74196;SDS011;62555;52.678;4.900;2023-04-16T02:20:39;2.78;;;1.20;;
74196;SDS011;62555;52.678;4.900;2023-04-16T02:23:04;3.45;;;1.10;;
74196;SDS011;62555;52.678;4.900;2023-04-16T02:25:29;2.87;;;0.90;;
74196;SDS011;62555;52.678;4.900;2023-04-16T02:27:54;3.40;;;1.07;;
74196;SDS011;62555;52.678;4.900;2023-04-16T02:30:19;3.83;;;1.23;;
74196;SDS011;62555;52.678;4.900;2023-04-16T02:32:45;2.97;;;1.50;;
74196;SDS011;62555;52.678;4.900;2023-04-16T02:35:10;2.15;;;0.93;;
74196;SDS011;62555;52.678;4.900;2023-04-16T02:37:35;4.07;;;1.13;;
74196;SDS011;62555;52.678;4.900;2023-04-16T02:40:00;3.30;;;1.70;;
74196;SDS011;62555;52.678;4.900;2023-04-16T02:42:26;1.33;;;1.20;;
74196;SDS011;62555;52.678;4.900;2023-04-16T02:44:52;2.92;;;1.33;;
74196;SDS011;62555;52.678;4.900;2023-04-16T02:47:17;1.83;;;1.08;;
74196;SDS011;62555;52.678;4.900;2023-04-16T02:49:42;2.85;;;1.52;;
74196;SDS011;62555;52.678;4.900;2023-04-16T02:52:07;5.27;;;1.37;;
74196;SDS011;62555;52.678;4.900;2023-04-16T02:54:33;2.73;;;1.27;;
74196;SDS011;62555;52.678;4.900;2023-04-16T02:56:58;1.97;;;1.33;;
74196;SDS011;62555;52.678;4.900;2023-04-16T02:59:23;2.42;;;1.40;;
74196;SDS011;62555;52.678;4.900;2023-04-16T03:01:48;4.73;;;1.83;;
74196;SDS011;62555;52.678;4.900;2023-04-16T03:04:13;4.43;;;1.80;;
74196;SDS011;62555;52.678;4.900;2023-04-16T03:06:38;3.63;;;1.48;;
74196;SDS011;62555;52.678;4.900;2023-04-16T03:09:03;4.47;;;1.90;;
74196;SDS011;62555;52.678;4.900;2023-04-16T03:11:29;3.20;;;1.60;;
74196;SDS011;62555;52.678;4.900;2023-04-16T03:13:54;2.77;;;1.60;;
74196;SDS011;62555;52.678;4.900;2023-04-16T03:16:19;4.93;;;2.03;;
74196;SDS011;62555;52.678;4.900;2023-04-16T03:18:44;3.13;;;1.60;;
74196;SDS011;62555;52.678;4.900;2023-04-16T03:21:09;4.20;;;1.70;;
74196;SDS011;62555;52.678;4.900;2023-04-16T03:23:35;5.13;;;1.63;;
74196;SDS011;62555;52.678;4.900;2023-04-16T03:26:00;5.22;;;1.42;;
74196;SDS011;62555;52.678;4.900;2023-04-16T03:28:25;5.87;;;3.67;;
74196;SDS011;62555;52.678;4.900;2023-04-16T03:30:52;2.23;;;1.40;;
74196;SDS011;62555;52.678;4.900;2023-04-16T03:33:18;4.05;;;2.13;;
74196;SDS011;62555;52.678;4.900;2023-04-16T03:35:43;5.32;;;2.30;;
74196;SDS011;62555;52.678;4.900;2023-04-16T03:38:08;3.77;;;2.30;;
74196;SDS011;62555;52.678;4.900;2023-04-16T03:40:33;4.37;;;2.20;;
74196;SDS011;62555;52.678;4.900;2023-04-16T03:42:58;5.37;;;2.47;;
74196;SDS011;62555;52.678;4.900;2023-04-16T03:45:24;3.05;;;1.85;;
74196;SDS011;62555;52.678;4.900;2023-04-16T03:47:49;4.53;;;2.20;;
74196;SDS011;62555;52.678;4.900;2023-04-16T03:50:17;4.40;;;2.50;;
74196;SDS011;62555;52.678;4.900;2023-04-16T03:52:42;4.18;;;2.47;;
74196;SDS011;62555;52.678;4.900;2023-04-16T03:55:08;4.80;;;2.30;;
74196;SDS011;62555;52.678;4.900;2023-04-16T03:57:33;6.87;;;3.13;;
74196;SDS011;62555;52.678;4.900;2023-04-16T03:59:59;4.25;;;2.80;;
74196;SDS011;62555;52.678;4.900;2023-04-16T04:02:24;6.00;;;2.80;;
74196;SDS011;62555;52.678;4.900;2023-04-16T04:04:49;4.47;;;2.87;;
74196;SDS011;62555;52.678;4.900;2023-04-16T04:07:15;4.80;;;2.83;;
74196;SDS011;62555;52.678;4.900;2023-04-16T04:09:40;5.22;;;2.65;;
74196;SDS011;62555;52.678;4.900;2023-04-16T04:12:05;6.77;;;2.83;;
74196;SDS011;62555;52.678;4.900;2023-04-16T04:14:30;4.10;;;2.30;;
74196;SDS011;62555;52.678;4.900;2023-04-16T04:16:55;4.90;;;2.90;;
74196;SDS011;62555;52.678;4.900;2023-04-16T04:19:20;7.10;;;2.92;;
74196;SDS011;62555;52.678;4.900;2023-04-16T04:21:46;4.60;;;2.50;;
74196;SDS011;62555;52.678;4.900;2023-04-16T04:24:11;5.50;;;3.43;;
74196;SDS011;62555;52.678;4.900;2023-04-16T04:26:36;6.43;;;3.03;;
74196;SDS011;62555;52.678;4.900;2023-04-16T04:29:01;5.97;;;2.90;;
74196;SDS011;62555;52.678;4.900;2023-04-16T04:31:26;5.30;;;2.38;;
74196;SDS011;62555;52.678;4.900;2023-04-16T04:33:51;4.70;;;2.73;;
74196;SDS011;62555;52.678;4.900;2023-04-16T04:36:17;6.53;;;2.57;;
74196;SDS011;62555;52.678;4.900;2023-04-16T04:38:42;5.00;;;2.93;;
74196;SDS011;62555;52.678;4.900;2023-04-16T04:41:07;3.97;;;2.50;;
74196;SDS011;62555;52.678;4.900;2023-04-16T04:43:32;5.70;;;3.07;;
74196;SDS011;62555;52.678;4.900;2023-04-16T04:45:57;4.33;;;2.57;;
74196;SDS011;62555;52.678;4.900;2023-04-16T04:48:23;5.50;;;3.27;;
74196;SDS011;62555;52.678;4.900;2023-04-16T04:53:15;4.90;;;2.40;;
74196;SDS011;62555;52.678;4.900;2023-04-16T04:55:40;5.05;;;3.22;;
74196;SDS011;62555;52.678;4.900;2023-04-16T04:58:06;4.93;;;2.70;;
74196;SDS011;62555;52.678;4.900;2023-04-16T05:00:32;4.95;;;3.08;;
74196;SDS011;62555;52.678;4.900;2023-04-16T05:03:00;6.57;;;3.00;;
74196;SDS011;62555;52.678;4.900;2023-04-16T05:05:25;5.88;;;3.40;;
74196;SDS011;62555;52.678;4.900;2023-04-16T05:07:51;3.77;;;2.83;;
74196;SDS011;62555;52.678;4.900;2023-04-16T05:10:16;7.40;;;2.70;;
74196;SDS011;62555;52.678;4.900;2023-04-16T05:12:41;5.90;;;3.00;;
74196;SDS011;62555;52.678;4.900;2023-04-16T05:15:06;3.97;;;2.53;;
74196;SDS011;62555;52.678;4.900;2023-04-16T05:17:32;7.35;;;3.15;;
74196;SDS011;62555;52.678;4.900;2023-04-16T05:19:57;5.03;;;3.23;;
74196;SDS011;62555;52.678;4.900;2023-04-16T05:22:22;7.35;;;3.00;;
74196;SDS011;62555;52.678;4.900;2023-04-16T05:24:47;3.63;;;2.73;;
74196;SDS011;62555;52.678;4.900;2023-04-16T05:27:12;5.18;;;3.65;;
74196;SDS011;62555;52.678;4.900;2023-04-16T05:29:37;6.30;;;3.10;;
74196;SDS011;62555;52.678;4.900;2023-04-16T05:32:02;8.40;;;2.97;;
74196;SDS011;62555;52.678;4.900;2023-04-16T05:34:28;5.27;;;3.63;;
74196;SDS011;62555;52.678;4.900;2023-04-16T05:36:53;6.37;;;3.47;;
74196;SDS011;62555;52.678;4.900;2023-04-16T05:39:18;4.93;;;3.28;;
74196;SDS011;62555;52.678;4.900;2023-04-16T05:41:44;5.13;;;2.97;;
74196;SDS011;62555;52.678;4.900;2023-04-16T05:44:09;6.37;;;2.90;;
74196;SDS011;62555;52.678;4.900;2023-04-16T05:46:34;6.50;;;3.20;;
74196;SDS011;62555;52.678;4.900;2023-04-16T05:48:59;5.73;;;3.23;;
74196;SDS011;62555;52.678;4.900;2023-04-16T05:51:24;5.47;;;2.80;;
74196;SDS011;62555;52.678;4.900;2023-04-16T05:53:51;6.15;;;3.08;;
74196;SDS011;62555;52.678;4.900;2023-04-16T05:56:16;8.02;;;4.18;;
74196;SDS011;62555;52.678;4.900;2023-04-16T05:58:41;6.00;;;3.30;;
74196;SDS011;62555;52.678;4.900;2023-04-16T06:01:06;6.03;;;3.30;;
74196;SDS011;62555;52.678;4.900;2023-04-16T06:03:31;7.07;;;3.00;;
74196;SDS011;62555;52.678;4.900;2023-04-16T06:05:56;6.80;;;3.60;;
74196;SDS011;62555;52.678;4.900;2023-04-16T06:08:22;4.90;;;3.07;;
74196;SDS011;62555;52.678;4.900;2023-04-16T06:10:47;5.95;;;3.28;;
74196;SDS011;62555;52.678;4.900;2023-04-16T06:13:13;5.63;;;2.95;;
74196;SDS011;62555;52.678;4.900;2023-04-16T06:15:38;6.17;;;3.20;;
74196;SDS011;62555;52.678;4.900;2023-04-16T06:18:03;5.47;;;3.17;;
74196;SDS011;62555;52.678;4.900;2023-04-16T06:20:28;7.18;;;3.53;;
74196;SDS011;62555;52.678;4.900;2023-04-16T06:22:54;6.97;;;3.33;;
74196;SDS011;62555;52.678;4.900;2023-04-16T06:25:19;5.22;;;3.05;;
74196;SDS011;62555;52.678;4.900;2023-04-16T06:27:44;6.00;;;3.40;;
74196;SDS011;62555;52.678;4.900;2023-04-16T06:30:10;6.17;;;2.90;;
74196;SDS011;62555;52.678;4.900;2023-04-16T06:32:35;4.40;;;3.22;;
74196;SDS011;62555;52.678;4.900;2023-04-16T06:35:01;5.87;;;3.60;;
74196;SDS011;62555;52.678;4.900;2023-04-16T06:37:26;4.50;;;2.80;;
74196;SDS011;62555;52.678;4.900;2023-04-16T06:39:51;6.40;;;3.60;;
74196;SDS011;62555;52.678;4.900;2023-04-16T06:42:16;5.97;;;3.50;;
74196;SDS011;62555;52.678;4.900;2023-04-16T06:44:41;5.97;;;3.20;;
74196;SDS011;62555;52.678;4.900;2023-04-16T06:47:07;5.23;;;3.13;;
74196;SDS011;62555;52.678;4.900;2023-04-16T06:49:32;6.60;;;3.53;;
74196;SDS011;62555;52.678;4.900;2023-04-16T06:51:57;6.23;;;2.77;;
74196;SDS011;62555;52.678;4.900;2023-04-16T06:54:22;6.60;;;3.03;;
74196;SDS011;62555;52.678;4.900;2023-04-16T06:56:47;6.10;;;2.90;;
74196;SDS011;62555;52.678;4.900;2023-04-16T06:59:12;6.30;;;3.47;;
74196;SDS011;62555;52.678;4.900;2023-04-16T07:01:37;4.40;;;3.17;;
74196;SDS011;62555;52.678;4.900;2023-04-16T07:04:03;5.13;;;3.00;;
74196;SDS011;62555;52.678;4.900;2023-04-16T07:06:28;4.97;;;2.97;;
74196;SDS011;62555;52.678;4.900;2023-04-16T07:08:53;5.15;;;3.50;;
74196;SDS011;62555;52.678;4.900;2023-04-16T07:11:18;6.97;;;3.22;;
74196;SDS011;62555;52.678;4.900;2023-04-16T07:13:44;5.60;;;2.85;;
74196;SDS011;62555;52.678;4.900;2023-04-16T07:16:09;6.07;;;2.90;;
74196;SDS011;62555;52.678;4.900;2023-04-16T07:18:34;6.43;;;3.40;;
74196;SDS011;62555;52.678;4.900;2023-04-16T07:20:59;6.53;;;3.60;;
74196;SDS011;62555;52.678;4.900;2023-04-16T07:23:25;6.30;;;3.73;;
74196;SDS011;62555;52.678;4.900;2023-04-16T07:25:50;5.37;;;3.60;;
74196;SDS011;62555;52.678;4.900;2023-04-16T07:28:15;5.77;;;3.53;;
74196;SDS011;62555;52.678;4.900;2023-04-16T07:30:41;4.35;;;2.72;;
74196;SDS011;62555;52.678;4.900;2023-04-16T07:33:06;6.03;;;3.33;;
74196;SDS011;62555;52.678;4.900;2023-04-16T07:35:32;4.43;;;2.83;;
74196;SDS011;62555;52.678;4.900;2023-04-16T07:37:57;5.17;;;3.57;;
74196;SDS011;62555;52.678;4.900;2023-04-16T07:40:22;5.07;;;3.10;;
74196;SDS011;62555;52.678;4.900;2023-04-16T07:42:48;5.32;;;2.88;;
74196;SDS011;62555;52.678;4.900;2023-04-16T07:45:13;4.60;;;3.27;;
74196;SDS011;62555;52.678;4.900;2023-04-16T07:47:38;5.73;;;3.73;;
74196;SDS011;62555;52.678;4.900;2023-04-16T07:50:03;4.17;;;2.97;;
74196;SDS011;62555;52.678;4.900;2023-04-16T07:52:28;5.78;;;3.15;;
74196;SDS011;62555;52.678;4.900;2023-04-16T07:54:54;6.10;;;3.90;;
74196;SDS011;62555;52.678;4.900;2023-04-16T07:57:19;5.87;;;3.13;;
74196;SDS011;62555;52.678;4.900;2023-04-16T07:59:45;5.30;;;2.97;;
74196;SDS011;62555;52.678;4.900;2023-04-16T08:02:11;5.70;;;4.13;;
74196;SDS011;62555;52.678;4.900;2023-04-16T08:04:38;5.57;;;3.90;;
74196;SDS011;62555;52.678;4.900;2023-04-16T08:07:03;4.97;;;2.97;;
74196;SDS011;62555;52.678;4.900;2023-04-16T08:09:28;5.80;;;3.27;;
74196;SDS011;62555;52.678;4.900;2023-04-16T08:11:53;7.83;;;3.47;;
74196;SDS011;62555;52.678;4.900;2023-04-16T08:14:19;5.07;;;2.90;;
74196;SDS011;62555;52.678;4.900;2023-04-16T08:16:44;5.40;;;3.60;;
74196;SDS011;62555;52.678;4.900;2023-04-16T08:19:09;7.93;;;3.20;;
74196;SDS011;62555;52.678;4.900;2023-04-16T08:21:34;7.97;;;3.97;;
74196;SDS011;62555;52.678;4.900;2023-04-16T08:23:59;4.80;;;3.90;;
74196;SDS011;62555;52.678;4.900;2023-04-16T08:26:24;4.67;;;3.47;;
74196;SDS011;62555;52.678;4.900;2023-04-16T08:28:50;6.07;;;3.20;;
74196;SDS011;62555;52.678;4.900;2023-04-16T08:31:15;6.25;;;3.85;;
74196;SDS011;62555;52.678;4.900;2023-04-16T08:33:40;6.22;;;3.97;;
74196;SDS011;62555;52.678;4.900;2023-04-16T08:36:06;5.28;;;4.03;;
74196;SDS011;62555;52.678;4.900;2023-04-16T08:38:31;4.73;;;3.33;;
74196;SDS011;62555;52.678;4.900;2023-04-16T08:40:56;6.70;;;4.00;;
74196;SDS011;62555;52.678;4.900;2023-04-16T08:43:26;7.05;;;3.70;;
74196;SDS011;62555;52.678;4.900;2023-04-16T08:45:52;4.13;;;3.03;;
74196;SDS011;62555;52.678;4.900;2023-04-16T08:48:17;6.30;;;3.55;;
74196;SDS011;62555;52.678;4.900;2023-04-16T08:50:45;6.10;;;3.50;;
74196;SDS011;62555;52.678;4.900;2023-04-16T08:53:10;5.27;;;3.53;;
74196;SDS011;62555;52.678;4.900;2023-04-16T08:55:44;5.97;;;3.60;;
74196;SDS011;62555;52.678;4.900;2023-04-16T08:58:14;6.95;;;3.33;;
74196;SDS011;62555;52.678;4.900;2023-04-16T09:00:41;5.75;;;3.80;;
74196;SDS011;62555;52.678;4.900;2023-04-16T09:03:07;8.13;;;4.13;;
74196;SDS011;62555;52.678;4.900;2023-04-16T09:05:33;6.72;;;3.13;;
74196;SDS011;62555;52.678;4.900;2023-04-16T09:07:58;8.40;;;4.10;;
74196;SDS011;62555;52.678;4.900;2023-04-16T09:10:24;5.67;;;3.93;;
74196;SDS011;62555;52.678;4.900;2023-04-16T09:12:50;6.85;;;3.35;;
74196;SDS011;62555;52.678;4.900;2023-04-16T09:15:16;5.30;;;3.90;;
74196;SDS011;62555;52.678;4.900;2023-04-16T09:17:41;5.97;;;3.70;;
74196;SDS011;62555;52.678;4.900;2023-04-16T09:20:06;7.00;;;3.70;;
74196;SDS011;62555;52.678;4.900;2023-04-16T09:22:35;5.85;;;3.28;;
74196;SDS011;62555;52.678;4.900;2023-04-16T09:25:00;5.78;;;3.20;;
74196;SDS011;62555;52.678;4.900;2023-04-16T09:27:25;6.00;;;3.60;;
74196;SDS011;62555;52.678;4.900;2023-04-16T09:29:51;7.73;;;3.83;;
74196;SDS011;62555;52.678;4.900;2023-04-16T09:32:16;6.55;;;3.53;;
74196;SDS011;62555;52.678;4.900;2023-04-16T09:34:57;6.30;;;4.10;;
74196;SDS011;62555;52.678;4.900;2023-04-16T09:37:24;6.40;;;3.33;;
74196;SDS011;62555;52.678;4.900;2023-04-16T09:39:53;6.38;;;3.53;;
74196;SDS011;62555;52.678;4.900;2023-04-16T09:42:22;5.25;;;3.70;;
74196;SDS011;62555;52.678;4.900;2023-04-16T09:44:48;6.65;;;3.90;;
74196;SDS011;62555;52.678;4.900;2023-04-16T09:47:13;6.30;;;4.03;;
74196;SDS011;62555;52.678;4.900;2023-04-16T09:49:41;6.53;;;3.77;;
74196;SDS011;62555;52.678;4.900;2023-04-16T09:52:13;6.00;;;3.75;;
74196;SDS011;62555;52.678;4.900;2023-04-16T09:54:45;7.10;;;3.67;;
74196;SDS011;62555;52.678;4.900;2023-04-16T09:57:10;7.40;;;4.30;;
74196;SDS011;62555;52.678;4.900;2023-04-16T09:59:35;6.18;;;3.88;;
74196;SDS011;62555;52.678;4.900;2023-04-16T10:02:01;7.45;;;4.00;;
74196;SDS011;62555;52.678;4.900;2023-04-16T10:04:26;7.23;;;4.43;;
74196;SDS011;62555;52.678;4.900;2023-04-16T10:07:03;7.73;;;3.90;;
74196;SDS011;62555;52.678;4.900;2023-04-16T10:09:38;7.97;;;4.25;;
74196;SDS011;62555;52.678;4.900;2023-04-16T10:12:04;6.85;;;4.28;;
74196;SDS011;62555;52.678;4.900;2023-04-16T10:14:30;8.23;;;4.63;;
74196;SDS011;62555;52.678;4.900;2023-04-16T10:16:55;7.40;;;4.20;;
74196;SDS011;62555;52.678;4.900;2023-04-16T10:19:20;6.73;;;4.50;;
74196;SDS011;62555;52.678;4.900;2023-04-16T10:21:46;7.18;;;4.68;;
74196;SDS011;62555;52.678;4.900;2023-04-16T10:24:11;8.13;;;4.00;;
74196;SDS011;62555;52.678;4.900;2023-04-16T10:26:36;6.87;;;4.43;;
74196;SDS011;62555;52.678;4.900;2023-04-16T10:29:02;7.97;;;4.30;;
74196;SDS011;62555;52.678;4.900;2023-04-16T10:31:28;5.97;;;4.18;;
74196;SDS011;62555;52.678;4.900;2023-04-16T10:33:53;7.20;;;3.93;;
74196;SDS011;62555;52.678;4.900;2023-04-16T10:36:22;8.43;;;3.92;;
74196;SDS011;62555;52.678;4.900;2023-04-16T10:38:50;7.25;;;4.15;;
74196;SDS011;62555;52.678;4.900;2023-04-16T10:41:18;7.45;;;4.15;;
74196;SDS011;62555;52.678;4.900;2023-04-16T10:43:44;8.90;;;4.07;;
74196;SDS011;62555;52.678;4.900;2023-04-16T10:46:19;6.85;;;4.25;;
74196;SDS011;62555;52.678;4.900;2023-04-16T10:48:45;8.20;;;4.75;;
74196;SDS011;62555;52.678;4.900;2023-04-16T10:53:47;7.63;;;4.90;;
74196;SDS011;62555;52.678;4.900;2023-04-16T10:56:12;8.43;;;4.53;;
74196;SDS011;62555;52.678;4.900;2023-04-16T10:58:38;7.87;;;4.13;;
74196;SDS011;62555;52.678;4.900;2023-04-16T11:01:09;9.43;;;4.38;;
74196;SDS011;62555;52.678;4.900;2023-04-16T11:03:36;8.10;;;5.13;;
74196;SDS011;62555;52.678;4.900;2023-04-16T11:06:14;10.70;;;5.23;;
74196;SDS011;62555;52.678;4.900;2023-04-16T11:08:40;9.55;;;4.65;;
74196;SDS011;62555;52.678;4.900;2023-04-16T11:11:07;9.57;;;4.35;;
74196;SDS011;62555;52.678;4.900;2023-04-16T11:13:33;10.77;;;4.80;;
74196;SDS011;62555;52.678;4.900;2023-04-16T11:16:00;8.15;;;4.85;;
74196;SDS011;62555;52.678;4.900;2023-04-16T11:18:25;7.93;;;4.75;;
74196;SDS011;62555;52.678;4.900;2023-04-16T11:20:51;9.10;;;4.93;;
74196;SDS011;62555;52.678;4.900;2023-04-16T11:23:16;8.57;;;4.70;;
74196;SDS011;62555;52.678;4.900;2023-04-16T11:25:41;7.83;;;4.37;;
74196;SDS011;62555;52.678;4.900;2023-04-16T11:28:06;8.27;;;4.65;;
74196;SDS011;62555;52.678;4.900;2023-04-16T11:30:35;8.50;;;4.60;;
74196;SDS011;62555;52.678;4.900;2023-04-16T11:33:01;9.73;;;4.50;;
74196;SDS011;62555;52.678;4.900;2023-04-16T11:35:27;8.07;;;4.30;;
74196;SDS011;62555;52.678;4.900;2023-04-16T11:37:56;11.37;;;4.57;;
74196;SDS011;62555;52.678;4.900;2023-04-16T11:40:21;8.70;;;4.38;;
74196;SDS011;62555;52.678;4.900;2023-04-16T11:42:46;6.90;;;4.43;;
74196;SDS011;62555;52.678;4.900;2023-04-16T11:45:12;7.17;;;4.57;;
74196;SDS011;62555;52.678;4.900;2023-04-16T11:47:47;8.90;;;5.88;;
74196;SDS011;62555;52.678;4.900;2023-04-16T11:50:19;7.30;;;4.57;;
74196;SDS011;62555;52.678;4.900;2023-04-16T11:52:44;5.45;;;3.42;;
74196;SDS011;62555;52.678;4.900;2023-04-16T11:55:10;9.02;;;4.82;;
74196;SDS011;62555;52.678;4.900;2023-04-16T11:57:35;9.63;;;4.93;;
74196;SDS011;62555;52.678;4.900;2023-04-16T12:00:02;7.82;;;5.03;;
74196;SDS011;62555;52.678;4.900;2023-04-16T12:02:34;8.27;;;5.20;;
74196;SDS011;62555;52.678;4.900;2023-04-16T12:04:59;9.20;;;5.07;;
74196;SDS011;62555;52.678;4.900;2023-04-16T12:07:24;10.50;;;5.17;;
74196;SDS011;62555;52.678;4.900;2023-04-16T12:09:50;8.90;;;4.47;;
74196;SDS011;62555;52.678;4.900;2023-04-16T12:12:28;7.90;;;5.25;;
74196;SDS011;62555;52.678;4.900;2023-04-16T12:14:54;9.25;;;4.97;;
74196;SDS011;62555;52.678;4.900;2023-04-16T12:17:20;7.50;;;4.72;;
74196;SDS011;62555;52.678;4.900;2023-04-16T12:19:55;9.10;;;5.20;;
74196;SDS011;62555;52.678;4.900;2023-04-16T12:22:30;7.63;;;4.55;;
74196;SDS011;62555;52.678;4.900;2023-04-16T12:24:58;8.23;;;5.07;;
74196;SDS011;62555;52.678;4.900;2023-04-16T12:27:24;8.68;;;4.63;;
74196;SDS011;62555;52.678;4.900;2023-04-16T12:30:02;8.60;;;4.63;;
74196;SDS011;62555;52.678;4.900;2023-04-16T12:32:27;7.88;;;4.95;;
74196;SDS011;62555;52.678;4.900;2023-04-16T12:34:52;7.23;;;4.30;;
74196;SDS011;62555;52.678;4.900;2023-04-16T12:37:17;8.17;;;4.70;;
74196;SDS011;62555;52.678;4.900;2023-04-16T12:39:43;6.63;;;4.70;;
74196;SDS011;62555;52.678;4.900;2023-04-16T12:42:08;8.40;;;4.25;;
74196;SDS011;62555;52.678;4.900;2023-04-16T12:44:35;9.10;;;4.68;;
74196;SDS011;62555;52.678;4.900;2023-04-16T12:47:00;8.25;;;4.75;;
74196;SDS011;62555;52.678;4.900;2023-04-16T12:49:25;7.68;;;4.88;;
74196;SDS011;62555;52.678;4.900;2023-04-16T12:51:50;8.38;;;4.68;;
74196;SDS011;62555;52.678;4.900;2023-04-16T12:54:16;9.93;;;5.10;;
74196;SDS011;62555;52.678;4.900;2023-04-16T12:56:41;7.13;;;5.60;;
74196;SDS011;62555;52.678;4.900;2023-04-16T12:59:06;8.60;;;4.87;;
74196;SDS011;62555;52.678;4.900;2023-04-16T13:04:01;8.82;;;4.28;;
74196;SDS011;62555;52.678;4.900;2023-04-16T13:06:26;7.93;;;4.77;;
74196;SDS011;62555;52.678;4.900;2023-04-16T13:08:51;7.70;;;4.90;;
74196;SDS011;62555;52.678;4.900;2023-04-16T13:11:16;9.05;;;5.20;;
74196;SDS011;62555;52.678;4.900;2023-04-16T13:13:41;9.07;;;4.83;;
74196;SDS011;62555;52.678;4.900;2023-04-16T13:16:06;8.43;;;5.47;;
74196;SDS011;62555;52.678;4.900;2023-04-16T13:18:32;6.95;;;5.18;;
74196;SDS011;62555;52.678;4.900;2023-04-16T13:20:57;7.05;;;4.47;;
74196;SDS011;62555;52.678;4.900;2023-04-16T13:23:23;7.82;;;5.03;;
74196;SDS011;62555;52.678;4.900;2023-04-16T13:25:48;6.67;;;4.80;;
74196;SDS011;62555;52.678;4.900;2023-04-16T13:28:13;10.00;;;5.20;;
74196;SDS011;62555;52.678;4.900;2023-04-16T13:30:38;8.63;;;5.37;;
74196;SDS011;62555;52.678;4.900;2023-04-16T13:33:04;7.53;;;5.40;;
74196;SDS011;62555;52.678;4.900;2023-04-16T13:35:29;9.05;;;5.03;;
74196;SDS011;62555;52.678;4.900;2023-04-16T13:37:55;8.00;;;5.43;;
74196;SDS011;62555;52.678;4.900;2023-04-16T13:40:20;8.57;;;5.30;;
74196;SDS011;62555;52.678;4.900;2023-04-16T13:42:45;7.23;;;4.97;;
74196;SDS011;62555;52.678;4.900;2023-04-16T13:45:10;9.55;;;5.63;;
74196;SDS011;62555;52.678;4.900;2023-04-16T13:47:37;6.65;;;5.38;;
74196;SDS011;62555;52.678;4.900;2023-04-16T13:50:02;9.85;;;5.72;;
74196;SDS011;62555;52.678;4.900;2023-04-16T13:52:27;9.67;;;5.47;;
74196;SDS011;62555;52.678;4.900;2023-04-16T13:54:53;8.13;;;5.83;;
74196;SDS011;62555;52.678;4.900;2023-04-16T13:57:18;8.93;;;6.37;;
74196;SDS011;62555;52.678;4.900;2023-04-16T13:59:43;9.25;;;6.50;;
74196;SDS011;62555;52.678;4.900;2023-04-16T14:02:09;9.17;;;6.10;;
74196;SDS011;62555;52.678;4.900;2023-04-16T14:04:34;8.85;;;5.88;;
74196;SDS011;62555;52.678;4.900;2023-04-16T14:07:00;9.07;;;5.63;;
74196;SDS011;62555;52.678;4.900;2023-04-16T14:09:25;9.50;;;6.28;;
74196;SDS011;62555;52.678;4.900;2023-04-16T14:11:50;8.23;;;6.10;;
74196;SDS011;62555;52.678;4.900;2023-04-16T14:14:15;9.23;;;6.07;;
74196;SDS011;62555;52.678;4.900;2023-04-16T14:16:40;9.80;;;5.93;;
74196;SDS011;62555;52.678;4.900;2023-04-16T14:19:05;11.00;;;6.47;;
74196;SDS011;62555;52.678;4.900;2023-04-16T14:21:31;9.45;;;6.05;;
74196;SDS011;62555;52.678;4.900;2023-04-16T14:23:56;9.50;;;6.40;;
74196;SDS011;62555;52.678;4.900;2023-04-16T14:26:21;8.40;;;5.40;;
74196;SDS011;62555;52.678;4.900;2023-04-16T14:28:46;9.25;;;5.82;;
74196;SDS011;62555;52.678;4.900;2023-04-16T14:31:11;8.13;;;5.47;;
74196;SDS011;62555;52.678;4.900;2023-04-16T14:33:37;8.50;;;5.90;;
74196;SDS011;62555;52.678;4.900;2023-04-16T14:36:02;9.87;;;6.13;;
74196;SDS011;62555;52.678;4.900;2023-04-16T14:38:27;9.50;;;5.40;;
74196;SDS011;62555;52.678;4.900;2023-04-16T14:40:53;8.60;;;6.30;;
74196;SDS011;62555;52.678;4.900;2023-04-16T14:43:18;10.25;;;6.05;;
74196;SDS011;62555;52.678;4.900;2023-04-16T14:45:43;13.70;;;6.13;;
74196;SDS011;62555;52.678;4.900;2023-04-16T14:48:09;9.23;;;6.07;;
74196;SDS011;62555;52.678;4.900;2023-04-16T14:50:34;7.85;;;5.60;;